Mings Chapel, Texas
Current Conditions -  °F | °C
As of 3:15 PM on Saturday 22 Nov 2014 (Local Time) from KOSA Reporting Station
Clear Clear  
Wind Chill: 69°   Ceiling: Unl
Heat Index: 69°   Visibility: 10mi
Dew Point: 55°   Wind: 9mph
Humidity: 62%   Direction: 110°ESE
Pressure: 29.92"   Gusts: NA
Location:  32.7353°N, 94.9492°W
Report Text: KOSA 222115Z AUTO 11008KT 10SM CLR 20/13 A2992 RMK AO1 T02030127
Loading
Personal Weather Stations






























Interactive Weather Map New forecast layout! Learn more

10-Day Weather Forecast

Advertisements
Track Severe Weather on mobile